createdAt,value
2018-08-25T00:01:32.701Z,76.23
2018-08-25T00:04:01.235Z,76.95
2018-08-25T00:06:29.709Z,76.45
2018-08-25T00:08:58.154Z,76.20
2018-08-25T00:11:26.651Z,76.10
2018-08-25T00:13:55.095Z,76.86
2018-08-25T00:16:23.580Z,76.93
2018-08-25T00:18:52.014Z,77.05
2018-08-25T00:21:20.497Z,77.26
2018-08-25T00:23:48.946Z,77.15
2018-08-25T00:26:17.409Z,77.07
2018-08-25T00:28:45.842Z,76.73
2018-08-25T00:31:19.560Z,77.36
2018-08-25T00:33:48.001Z,77.79
2018-08-25T00:36:16.455Z,77.32
2018-08-25T00:38:44.935Z,78.08
2018-08-25T00:41:13.647Z,77.88
2018-08-25T00:43:42.141Z,77.66
2018-08-25T00:46:10.623Z,76.97
2018-08-25T00:48:39.112Z,77.06
2018-08-25T00:51:07.605Z,76.77
2018-08-25T00:53:36.568Z,77.50
2018-08-25T00:56:05.109Z,77.65
2018-08-25T00:58:33.639Z,77.75
2018-08-25T01:01:02.405Z,77.95
2018-08-25T01:03:30.877Z,78.03
2018-08-25T01:05:59.353Z,78.56
2018-08-25T01:08:27.815Z,78.41
2018-08-25T01:10:56.278Z,78.02
2018-08-25T01:13:24.749Z,77.98
2018-08-25T01:15:53.190Z,77.77
2018-08-25T01:18:21.714Z,77.59
2018-08-25T01:20:50.755Z,77.48
2018-08-25T01:23:19.325Z,78.18
2018-08-25T01:25:47.790Z,77.77
2018-08-25T01:28:16.248Z,77.48
2018-08-25T01:30:44.686Z,77.89
2018-08-25T01:33:13.241Z,78.17
2018-08-25T01:35:41.676Z,78.07
2018-08-25T01:38:10.190Z,78.16
2018-08-25T01:40:38.709Z,78.26
2018-08-25T01:43:07.222Z,77.82
2018-08-25T01:45:35.655Z,77.95
2018-08-25T01:48:04.193Z,77.95
2018-08-25T01:50:32.634Z,77.58
2018-08-25T01:53:01.126Z,78.16
2018-08-25T01:55:29.671Z,78.41
2018-08-25T01:57:58.136Z,78.65
2018-08-25T02:00:26.631Z,78.61
2018-08-25T02:02:55.117Z,78.93
2018-08-25T02:05:23.587Z,79.62
2018-08-25T02:07:52.066Z,79.58
2018-08-25T02:10:20.515Z,79.78
2018-08-25T02:12:49.000Z,80.24
2018-08-25T02:15:17.469Z,80.43
2018-08-25T02:17:45.946Z,80.91
2018-08-25T02:20:14.393Z,80.56
2018-08-25T02:22:42.873Z,81.12
2018-08-25T02:25:11.338Z,80.09
2018-08-25T02:27:39.801Z,80.06
2018-08-25T02:30:08.268Z,80.12
2018-08-25T02:32:36.767Z,79.63
2018-08-25T02:35:05.602Z,79.04
2018-08-25T02:37:34.041Z,78.74
2018-08-25T02:40:02.543Z,78.66
2018-08-25T02:42:31.030Z,78.24
2018-08-25T02:44:59.499Z,78.72
2018-08-25T02:47:27.921Z,78.96
2018-08-25T02:49:56.389Z,78.72
2018-08-25T02:52:24.836Z,79.56
2018-08-25T02:54:53.307Z,79.00
2018-08-25T02:57:21.729Z,78.92
2018-08-25T02:59:50.193Z,79.32
2018-08-25T03:02:18.633Z,79.94
2018-08-25T03:04:47.107Z,80.45
2018-08-25T03:07:15.550Z,80.95
2018-08-25T03:09:44.011Z,80.18
2018-08-25T03:12:12.461Z,79.75
2018-08-25T03:14:40.924Z,79.96
2018-08-25T03:17:09.398Z,80.50
2018-08-25T03:19:37.871Z,80.82
2018-08-25T03:22:06.346Z,80.99
2018-08-25T03:24:34.868Z,81.15
2018-08-25T03:27:03.341Z,81.87
2018-08-25T03:29:31.814Z,81.27
2018-08-25T03:32:00.261Z,80.91
2018-08-25T03:34:28.735Z,79.72
2018-08-25T03:36:57.166Z,80.30
2018-08-25T03:39:25.646Z,80.01
2018-08-25T03:41:54.082Z,80.28
2018-08-25T03:44:22.548Z,80.34
2018-08-25T03:46:50.970Z,80.26
2018-08-25T03:49:19.444Z,80.06
2018-08-25T03:51:47.894Z,80.09
2018-08-25T03:54:16.365Z,79.61
2018-08-25T03:56:44.806Z,79.36
2018-08-25T03:59:13.534Z,78.85
2018-08-25T04:01:42.066Z,78.82
2018-08-25T04:04:10.457Z,79.10
2018-08-25T04:06:38.889Z,79.21
2018-08-25T04:09:09.938Z,79.40
2018-08-25T04:11:38.431Z,78.89
2018-08-25T04:14:07.810Z,78.63
2018-08-25T04:16:36.323Z,78.32
2018-08-25T04:19:04.805Z,78.50
2018-08-25T04:21:33.259Z,78.34
2018-08-25T04:24:01.779Z,78.03
2018-08-25T04:26:30.236Z,78.37
2018-08-25T04:28:58.711Z,77.29
2018-08-25T04:31:27.158Z,77.72
2018-08-25T04:33:55.640Z,78.34
2018-08-25T04:36:24.184Z,78.80
2018-08-25T04:38:52.637Z,78.51
2018-08-25T04:41:21.156Z,79.35
2018-08-25T04:43:49.591Z,79.11
2018-08-25T04:46:18.062Z,78.82
2018-08-25T04:48:46.545Z,78.82
2018-08-25T04:51:15.573Z,78.54
2018-08-25T04:53:44.246Z,77.68
2018-08-25T04:56:12.730Z,77.03
2018-08-25T04:58:41.169Z,75.03
2018-08-25T05:01:09.898Z,75.83
2018-08-25T05:03:38.380Z,75.39
2018-08-25T05:06:06.886Z,74.33
2018-08-25T05:08:35.332Z,71.79
2018-08-25T05:11:03.800Z,70.50
2018-08-25T05:13:32.278Z,70.47
2018-08-25T05:16:00.757Z,70.46
2018-08-25T05:18:29.302Z,70.74
2018-08-25T05:20:57.775Z,70.49
2018-08-25T05:23:26.202Z,69.93
2018-08-25T05:25:54.678Z,69.78
2018-08-25T05:28:23.122Z,69.63
2018-08-25T05:30:51.597Z,67.45
2018-08-25T05:33:20.085Z,68.38
2018-08-25T05:35:48.562Z,68.51
2018-08-25T05:38:17.014Z,67.77
2018-08-25T05:40:45.473Z,68.02
2018-08-25T05:43:13.929Z,67.70
2018-08-25T05:45:42.405Z,68.10
2018-08-25T05:48:10.855Z,67.83
2018-08-25T05:50:39.331Z,68.31
2018-08-25T05:53:07.885Z,68.25
2018-08-25T05:55:36.353Z,67.14
2018-08-25T05:58:04.851Z,67.58
2018-08-25T06:00:33.384Z,67.01
2018-08-25T06:03:01.850Z,66.74
2018-08-25T06:05:30.375Z,66.30
2018-08-25T06:07:58.878Z,65.87
2018-08-25T06:10:27.357Z,66.88
2018-08-25T06:12:57.530Z,66.89
2018-08-25T06:15:26.013Z,67.44
2018-08-25T06:17:57.366Z,67.84
2018-08-25T06:20:25.904Z,67.20
2018-08-25T06:22:54.647Z,67.71
2018-08-25T06:25:23.114Z,66.73
2018-08-25T06:27:51.710Z,65.45
2018-08-25T06:30:20.207Z,64.68
2018-08-25T06:32:48.657Z,64.04
2018-08-25T06:35:17.126Z,64.02
2018-08-25T06:37:45.577Z,63.89
2018-08-25T06:40:14.054Z,62.87
2018-08-25T06:42:42.605Z,61.43
2018-08-25T06:45:11.046Z,60.52
2018-08-25T06:47:39.601Z,61.55
2018-08-25T06:50:08.078Z,61.15
2018-08-25T06:52:36.537Z,61.10
2018-08-25T06:55:05.035Z,59.97
2018-08-25T06:57:33.614Z,60.48
2018-08-25T07:00:02.049Z,60.16
2018-08-25T07:02:30.517Z,58.12
2018-08-25T07:04:58.977Z,58.72
2018-08-25T07:07:27.458Z,59.27
2018-08-25T07:09:55.892Z,58.24
2018-08-25T07:12:24.347Z,59.24
2018-08-25T07:14:52.765Z,59.30
2018-08-25T07:17:21.255Z,58.60
2018-08-25T07:19:50.054Z,57.38
2018-08-25T07:22:18.529Z,57.66
2018-08-25T07:24:47.025Z,57.34
2018-08-25T07:27:15.510Z,56.88
2018-08-25T07:29:43.954Z,55.75
2018-08-25T07:32:12.479Z,54.79
2018-08-25T07:41:42.374Z,54.16
2018-08-25T07:44:11.125Z,52.63
2018-08-25T07:46:40.146Z,51.68
2018-08-25T07:49:08.639Z,51.53
2018-08-25T07:51:37.123Z,49.63
2018-08-25T07:54:05.647Z,48.12
2018-08-25T07:56:34.133Z,48.23
2018-08-25T07:59:02.595Z,48.69
2018-08-25T08:01:31.132Z,48.39
2018-08-25T08:03:59.569Z,46.60
2018-08-25T08:06:28.678Z,46.31
2018-08-25T08:08:57.150Z,46.29
2018-08-25T08:11:25.618Z,45.86
2018-08-25T08:13:54.121Z,42.08
2018-08-25T08:16:22.614Z,43.28
2018-08-25T08:18:51.071Z,43.96
2018-08-25T08:21:19.542Z,45.46
2018-08-25T08:23:48.098Z,45.93
2018-08-25T08:26:16.656Z,46.18
2018-08-25T08:28:45.183Z,45.82
2018-08-25T08:31:13.672Z,46.15
2018-08-25T08:33:42.157Z,46.87
2018-08-25T08:36:10.625Z,46.86
2018-08-25T08:38:39.721Z,47.49
2018-08-25T08:41:08.217Z,47.75
2018-08-25T08:43:37.218Z,47.94
2018-08-25T08:46:06.531Z,47.58
2018-08-25T08:48:35.039Z,47.80
2018-08-25T08:51:03.678Z,46.96
2018-08-25T08:53:32.145Z,48.03
2018-08-25T08:56:00.735Z,48.24
2018-08-25T08:58:29.289Z,48.38
2018-08-25T09:00:57.762Z,47.58
2018-08-25T09:03:26.308Z,47.28
2018-08-25T09:05:54.769Z,47.23
2018-08-25T09:08:23.271Z,47.81
2018-08-25T09:10:51.936Z,48.31
2018-08-25T09:13:21.487Z,48.24
2018-08-25T09:15:49.961Z,47.62
2018-08-25T09:18:18.438Z,48.83
2018-08-25T09:20:48.806Z,48.47
2018-08-25T09:23:17.278Z,49.29
2018-08-25T09:25:45.800Z,48.39
2018-08-25T09:28:14.407Z,48.22
2018-08-25T09:30:42.870Z,48.18
2018-08-25T09:33:11.369Z,49.25
2018-08-25T09:35:39.873Z,49.18
2018-08-25T09:38:08.329Z,49.83
2018-08-25T09:40:37.285Z,49.04
2018-08-25T09:43:06.277Z,48.30
2018-08-25T09:45:34.769Z,47.82
2018-08-25T09:48:03.282Z,46.41
2018-08-25T09:50:31.741Z,45.60
2018-08-25T09:53:00.250Z,45.98
2018-08-25T09:55:28.722Z,46.00
2018-08-25T09:57:57.210Z,44.89
2018-08-25T10:00:25.773Z,43.45
2018-08-25T10:02:54.276Z,42.08
2018-08-25T10:05:22.909Z,41.49
2018-08-25T10:07:51.365Z,41.14
2018-08-25T10:10:19.917Z,41.18
2018-08-25T10:12:48.389Z,40.91
2018-08-25T10:15:16.897Z,40.29
2018-08-25T10:17:45.399Z,39.23
2018-08-25T10:20:13.877Z,39.78
2018-08-25T10:22:42.364Z,37.94
2018-08-25T10:25:10.849Z,38.08
2018-08-25T10:27:39.353Z,37.54
2018-08-25T10:30:08.710Z,38.59
2018-08-25T10:32:37.178Z,38.19
2018-08-25T10:35:05.779Z,38.08
2018-08-25T10:37:34.529Z,38.26
2018-08-25T10:40:03.038Z,37.90
2018-08-25T10:42:31.506Z,37.38
2018-08-25T10:45:00.571Z,37.55
2018-08-25T10:47:29.044Z,37.34
2018-08-25T10:49:57.550Z,35.37
2018-08-25T10:52:26.078Z,34.76
2018-08-25T10:54:54.589Z,35.83
2018-08-25T10:57:23.069Z,36.21
2018-08-25T10:59:51.574Z,36.17
2018-08-25T11:02:26.284Z,36.44
2018-08-25T11:04:54.817Z,38.18
2018-08-25T11:09:51.853Z,37.59
2018-08-25T11:12:20.524Z,37.21
2018-08-25T11:14:49.061Z,36.21
2018-08-25T11:17:17.538Z,38.67
2018-08-25T11:19:46.037Z,36.41
2018-08-25T11:22:14.502Z,37.70
2018-08-25T11:24:43.018Z,37.95
2018-08-25T11:27:11.567Z,38.72
2018-08-25T11:29:40.087Z,39.78
2018-08-25T11:32:08.634Z,39.16
2018-08-25T11:36:06.271Z,40.32
2018-08-25T11:38:34.743Z,41.13
2018-08-25T11:41:03.931Z,41.83
2018-08-25T11:43:32.444Z,42.56
2018-08-25T11:46:00.965Z,43.69
2018-08-25T11:48:29.438Z,44.27
2018-08-25T11:50:57.944Z,43.48
2018-08-25T11:53:26.393Z,43.12
2018-08-25T11:55:54.887Z,43.20
2018-08-25T11:58:23.364Z,42.70
2018-08-25T12:00:51.891Z,43.98
2018-08-25T12:03:20.396Z,44.04
2018-08-25T12:05:48.932Z,43.13
2018-08-25T12:08:17.400Z,45.03
2018-08-25T12:10:45.922Z,44.23
2018-08-25T12:13:14.438Z,44.52
2018-08-25T12:15:42.934Z,43.06
2018-08-25T12:18:11.408Z,44.58
2018-08-25T12:20:39.925Z,44.99
2018-08-25T12:23:08.488Z,45.08
2018-08-25T12:25:36.991Z,42.64
2018-08-25T12:28:05.589Z,43.69
2018-08-25T12:30:34.758Z,43.59
2018-08-25T12:33:03.206Z,43.28
2018-08-25T12:35:31.722Z,42.74
2018-08-25T12:38:00.207Z,44.30
2018-08-25T12:40:28.712Z,43.23
2018-08-25T12:42:57.231Z,43.94
2018-08-25T12:45:25.733Z,44.38
2018-08-25T12:47:54.191Z,44.46
2018-08-25T12:50:22.702Z,46.01
2018-08-25T12:52:51.164Z,46.97
2018-08-25T12:55:19.694Z,49.20
2018-08-25T12:57:49.486Z,51.68
2018-08-25T13:00:17.985Z,56.32
2018-08-25T13:02:46.564Z,62.42
2018-08-25T13:05:15.185Z,64.69
2018-08-25T13:07:43.704Z,67.57
2018-08-25T13:10:12.191Z,69.45
2018-08-25T13:12:40.654Z,72.73
2018-08-25T13:15:09.224Z,74.54
2018-08-25T13:17:39.777Z,74.10
2018-08-25T13:20:08.303Z,73.42
2018-08-25T13:22:36.765Z,73.59
2018-08-25T13:25:05.382Z,72.32
2018-08-25T13:27:33.777Z,70.37
2018-08-25T13:30:02.299Z,69.36
2018-08-25T13:32:30.762Z,68.52
2018-08-25T13:34:59.226Z,66.22
2018-08-25T13:37:27.714Z,65.54
2018-08-25T13:39:56.196Z,62.99
2018-08-25T13:42:24.649Z,63.10
2018-08-25T13:44:53.179Z,61.26
2018-08-25T13:47:21.864Z,62.03
2018-08-25T13:49:51.342Z,59.96
2018-08-25T13:52:19.886Z,59.38
2018-08-25T13:54:48.477Z,58.13
2018-08-25T13:57:17.300Z,57.06
2018-08-25T13:59:45.964Z,57.15
2018-08-25T14:02:14.471Z,56.40
2018-08-25T14:04:42.905Z,55.90
2018-08-25T14:07:11.468Z,54.64
2018-08-25T14:09:40.050Z,56.03
2018-08-25T14:12:08.549Z,55.24
2018-08-25T14:14:37.250Z,55.22
2018-08-25T14:17:05.871Z,53.78
2018-08-25T14:19:34.375Z,53.16
2018-08-25T14:22:02.854Z,52.81
2018-08-25T14:24:31.309Z,53.02
2018-08-25T14:26:59.785Z,52.16
2018-08-25T14:29:28.213Z,52.77
2018-08-25T14:31:56.720Z,52.66
2018-08-25T14:34:25.171Z,54.09
2018-08-25T14:36:53.675Z,55.23
2018-08-25T14:39:22.208Z,55.32
2018-08-25T14:41:50.713Z,56.56
2018-08-25T14:44:19.183Z,55.52
2018-08-25T14:46:47.682Z,56.53
2018-08-25T14:49:16.118Z,55.64
2018-08-25T14:51:44.655Z,56.14
2018-08-25T14:54:13.121Z,55.77
2018-08-25T14:56:41.619Z,56.38
2018-08-25T14:59:10.069Z,56.76
2018-08-25T15:01:38.561Z,58.27
2018-08-25T15:04:07.090Z,59.10
2018-08-25T15:06:35.617Z,58.31
2018-08-25T15:09:06.394Z,58.89
2018-08-25T15:11:34.894Z,60.29
2018-08-25T15:14:03.378Z,59.86
2018-08-25T15:16:31.872Z,57.14
2018-08-25T15:19:00.376Z,57.86
2018-08-25T15:21:28.867Z,56.44
2018-08-25T15:23:57.423Z,56.40
2018-08-25T15:26:25.963Z,57.40
2018-08-25T15:28:54.416Z,56.21
2018-08-25T15:31:22.897Z,54.90
2018-08-25T15:33:51.392Z,55.62
2018-08-25T15:36:19.858Z,57.80
2018-08-25T15:38:48.331Z,58.23
2018-08-25T15:41:16.773Z,57.60
2018-08-25T15:43:45.338Z,59.73
2018-08-25T15:46:13.782Z,58.31
2018-08-25T15:48:42.286Z,59.48
2018-08-25T15:51:10.774Z,60.72
2018-08-25T15:53:39.253Z,63.10
2018-08-25T15:56:07.929Z,63.10
2018-08-25T15:58:36.427Z,64.62
2018-08-25T16:01:04.957Z,66.93
2018-08-25T16:03:33.462Z,67.77
2018-08-25T16:06:02.000Z,68.08
2018-08-25T16:08:30.454Z,68.02
2018-08-25T16:10:58.914Z,68.42
2018-08-25T16:13:27.441Z,69.94
2018-08-25T16:15:55.915Z,68.59
2018-08-25T16:18:24.394Z,69.95
2018-08-25T16:20:52.851Z,70.33
2018-08-25T16:23:21.334Z,69.90
2018-08-25T16:25:50.034Z,69.98
2018-08-25T16:28:18.834Z,70.67
2018-08-25T16:30:54.707Z,70.67
2018-08-25T16:33:23.564Z,71.97
2018-08-25T16:35:53.609Z,72.20
2018-08-25T16:38:22.112Z,72.41
2018-08-25T16:40:50.741Z,71.89
2018-08-25T16:43:19.684Z,71.93
2018-08-25T16:45:48.190Z,71.93
2018-08-25T16:48:16.657Z,72.58
2018-08-25T16:50:45.090Z,72.84
2018-08-25T16:53:13.704Z,72.04
2018-08-25T16:55:42.374Z,72.95
2018-08-25T16:58:10.896Z,73.18
2018-08-25T17:00:39.434Z,72.84
2018-08-25T17:03:07.973Z,72.00
2018-08-25T17:05:36.449Z,73.17
2018-08-25T17:08:04.967Z,73.31
2018-08-25T17:10:33.425Z,72.34
2018-08-25T17:13:01.913Z,71.51
2018-08-25T17:15:30.395Z,71.89
2018-08-25T17:17:58.915Z,71.68
2018-08-25T17:20:27.405Z,71.26
2018-08-25T17:22:55.961Z,72.27
2018-08-25T17:25:24.515Z,71.49
2018-08-25T17:27:53.021Z,72.12
2018-08-25T17:30:21.503Z,71.84
2018-08-25T17:32:49.992Z,71.93
2018-08-25T17:35:18.473Z,72.15
2018-08-25T17:37:47.057Z,72.53
2018-08-25T17:40:15.564Z,74.24
2018-08-25T17:42:44.054Z,73.88
2018-08-25T17:45:12.667Z,74.25
2018-08-25T17:47:41.069Z,74.78
2018-08-25T17:50:09.572Z,75.17
2018-08-25T17:52:38.073Z,74.32
2018-08-25T17:55:06.633Z,73.90
2018-08-25T17:57:35.195Z,74.74
2018-08-25T18:00:03.790Z,73.47
2018-08-25T18:02:32.264Z,73.72
2018-08-25T18:05:00.786Z,72.35
2018-08-25T18:07:29.274Z,71.96
2018-08-25T18:09:57.803Z,71.50
2018-08-25T18:12:26.272Z,71.89
2018-08-25T18:14:54.783Z,73.23
2018-08-25T18:17:23.285Z,73.76
2018-08-25T18:19:51.810Z,74.50
2018-08-25T18:22:20.275Z,74.91
2018-08-25T18:24:48.793Z,75.50
2018-08-25T18:27:17.269Z,75.19
2018-08-25T18:29:45.798Z,76.53
2018-08-25T18:32:14.646Z,76.03
2018-08-25T18:34:43.218Z,74.60
2018-08-25T18:37:11.689Z,75.86
2018-08-25T18:39:40.190Z,76.25
2018-08-25T18:42:08.694Z,76.24
2018-08-25T18:44:37.187Z,76.33
2018-08-25T18:47:06.248Z,76.28
2018-08-25T18:49:34.866Z,76.52
2018-08-25T18:52:03.359Z,77.75
2018-08-25T18:54:31.883Z,77.21
2018-08-25T18:57:00.333Z,77.27
2018-08-25T18:59:29.046Z,77.70
2018-08-25T19:01:57.591Z,77.25
2018-08-25T19:04:26.085Z,76.91
2018-08-25T19:06:54.563Z,77.46
2018-08-25T19:09:23.090Z,77.40
2018-08-25T19:11:51.554Z,77.67
2018-08-25T19:14:20.165Z,77.38
2018-08-25T19:16:48.549Z,78.14
2018-08-25T19:19:17.054Z,77.58
2018-08-25T19:21:45.537Z,77.39
2018-08-25T19:24:14.075Z,77.90
2018-08-25T19:26:42.530Z,78.14
2018-08-25T19:29:11.043Z,77.92
2018-08-25T19:31:39.567Z,78.39
2018-08-25T19:34:08.081Z,78.49
2018-08-25T19:36:36.584Z,78.29
2018-08-25T19:39:07.850Z,78.43
2018-08-25T19:41:36.427Z,78.00
2018-08-25T19:44:04.947Z,77.41
2018-08-25T19:46:33.437Z,77.93
2018-08-25T19:49:01.993Z,77.68
2018-08-25T19:51:30.502Z,76.77
2018-08-25T19:53:59.026Z,76.75
2018-08-25T19:56:27.606Z,76.84
2018-08-25T19:58:56.069Z,75.77
2018-08-25T20:01:24.749Z,76.14
2018-08-25T20:03:53.210Z,75.07
2018-08-25T20:06:21.726Z,75.29
2018-08-25T20:08:50.250Z,75.43
2018-08-25T20:11:18.745Z,75.65
2018-08-25T20:13:47.229Z,75.04
2018-08-25T20:16:15.989Z,75.22
2018-08-25T20:18:44.528Z,75.23
2018-08-25T20:21:13.146Z,75.25
2018-08-25T20:23:41.892Z,75.16
2018-08-25T20:26:10.393Z,76.00
2018-08-25T20:28:38.879Z,75.97
2018-08-25T20:31:07.429Z,76.11
2018-08-25T20:33:35.904Z,76.41
2018-08-25T20:36:04.437Z,76.27
2018-08-25T20:38:32.911Z,76.15
2018-08-25T20:41:01.409Z,76.33
2018-08-25T20:43:29.871Z,75.99
2018-08-25T20:45:58.554Z,76.41
2018-08-25T20:48:27.196Z,76.20
2018-08-25T20:50:55.739Z,75.93
2018-08-25T20:53:24.288Z,76.45
2018-08-25T20:55:52.826Z,76.57
2018-08-25T20:58:21.620Z,76.29
2018-08-25T21:00:50.302Z,76.08
2018-08-25T21:03:18.780Z,75.85
2018-08-25T21:05:47.331Z,76.09
2018-08-25T21:08:15.838Z,76.45
2018-08-25T21:10:45.290Z,76.33
2018-08-25T21:13:13.764Z,76.43
2018-08-25T21:15:42.305Z,76.02
2018-08-25T21:18:10.742Z,75.91
2018-08-25T21:20:39.239Z,76.21
2018-08-25T21:23:07.697Z,76.10
2018-08-25T21:25:36.215Z,76.32
2018-08-25T21:28:04.751Z,76.93
2018-08-25T21:30:33.237Z,76.52
2018-08-25T21:33:01.715Z,76.52
2018-08-25T21:35:30.192Z,77.29
2018-08-25T21:37:58.699Z,77.52
2018-08-25T21:40:27.211Z,77.93
2018-08-25T21:42:55.730Z,77.76
2018-08-25T21:45:24.905Z,78.28
2018-08-25T21:47:53.457Z,78.31
2018-08-25T21:50:22.025Z,78.18
2018-08-25T21:52:50.526Z,78.29
2018-08-25T21:55:18.973Z,78.10
2018-08-25T21:57:47.475Z,78.05
2018-08-25T22:00:16.051Z,78.32
2018-08-25T22:02:44.572Z,78.35
2018-08-25T22:05:13.090Z,78.35
2018-08-25T22:07:41.598Z,78.46
2018-08-25T22:10:10.103Z,78.57
2018-08-25T22:12:38.650Z,77.98
2018-08-25T22:15:07.203Z,78.15
2018-08-25T22:17:35.700Z,78.46
2018-08-25T22:20:04.281Z,78.36
2018-08-25T22:22:33.163Z,78.74
2018-08-25T22:25:01.643Z,78.24
2018-08-25T22:27:30.226Z,78.97
2018-08-25T22:29:58.717Z,78.70
2018-08-25T22:32:27.214Z,79.08
2018-08-25T22:34:55.834Z,79.09
2018-08-25T22:37:24.333Z,79.49
2018-08-25T22:39:52.810Z,79.43
2018-08-25T22:42:21.306Z,79.08
2018-08-25T22:44:49.773Z,79.05
2018-08-25T22:47:18.299Z,79.17
2018-08-25T22:49:46.778Z,78.82
2018-08-25T22:52:15.281Z,79.02
2018-08-25T22:54:43.790Z,79.25
2018-08-25T22:57:12.281Z,79.33
2018-08-25T22:59:40.746Z,78.91
2018-08-25T23:02:09.233Z,79.10
2018-08-25T23:04:37.758Z,78.88
2018-08-25T23:07:06.248Z,79.06
2018-08-25T23:09:34.728Z,79.08
2018-08-25T23:12:03.265Z,79.45
2018-08-25T23:14:31.723Z,79.06
2018-08-25T23:17:00.205Z,79.67
2018-08-25T23:19:28.666Z,79.89
2018-08-25T23:21:57.173Z,80.42
2018-08-25T23:24:25.647Z,80.50
2018-08-25T23:26:54.146Z,80.87
2018-08-25T23:29:22.606Z,81.25
2018-08-25T23:31:51.118Z,81.07
2018-08-25T23:34:19.600Z,81.28
2018-08-25T23:36:48.080Z,81.09
2018-08-25T23:39:16.625Z,81.47
2018-08-25T23:41:45.091Z,81.98
2018-08-25T23:44:13.753Z,82.22
2018-08-25T23:46:42.213Z,82.03
2018-08-25T23:49:10.713Z,82.09
2018-08-25T23:51:39.177Z,82.25
2018-08-25T23:54:07.771Z,81.96
2018-08-25T23:56:36.229Z,81.57
2018-08-25T23:59:04.753Z,81.99
